sensor_id;sensor_type;location;lat;lon;timestamp;pressure;altitude;pressure_sealevel;temperature;humidity
66668;BME280;57205;51.438;-2.006;2023-01-28T00:01:51;102544.88;;;-0.08;100.00
66668;BME280;57205;51.438;-2.006;2023-01-28T00:04:16;102545.16;;;-0.11;100.00
66668;BME280;57205;51.438;-2.006;2023-01-28T00:06:42;102548.78;;;-0.12;100.00
66668;BME280;57205;51.438;-2.006;2023-01-28T00:09:07;102551.09;;;-0.09;100.00
66668;BME280;57205;51.438;-2.006;2023-01-28T00:11:33;102559.84;;;-0.09;100.00
66668;BME280;57205;51.438;-2.006;2023-01-28T00:13:58;102557.34;;;-0.10;100.00
66668;BME280;57205;51.438;-2.006;2023-01-28T00:16:24;102556.66;;;-0.12;100.00
66668;BME280;57205;51.438;-2.006;2023-01-28T00:18:51;102557.34;;;-0.10;100.00
66668;BME280;57205;51.438;-2.006;2023-01-28T00:21:16;102557.03;;;-0.07;100.00
66668;BME280;57205;51.438;-2.006;2023-01-28T00:23:42;102571.56;;;-0.03;100.00
66668;BME280;57205;51.438;-2.006;2023-01-28T00:26:12;102559.78;;;0.01;100.00
66668;BME280;57205;51.438;-2.006;2023-01-28T00:28:38;102572.63;;;0.04;100.00
66668;BME280;57205;51.438;-2.006;2023-01-28T00:31:13;102568.56;;;0.10;100.00
66668;BME280;57205;51.438;-2.006;2023-01-28T00:33:41;102567.47;;;0.12;100.00
66668;BME280;57205;51.438;-2.006;2023-01-28T00:36:06;102574.38;;;0.13;100.00
66668;BME280;57205;51.438;-2.006;2023-01-28T00:38:32;102571.75;;;0.13;100.00
66668;BME280;57205;51.438;-2.006;2023-01-28T00:43:33;102577.69;;;0.15;100.00
66668;BME280;57205;51.438;-2.006;2023-01-28T00:45:58;102572.41;;;0.15;100.00
66668;BME280;57205;51.438;-2.006;2023-01-28T00:48:24;102564.41;;;0.17;100.00
66668;BME280;57205;51.438;-2.006;2023-01-28T00:50:49;102569.34;;;0.20;100.00
66668;BME280;57205;51.438;-2.006;2023-01-28T00:53:14;102562.41;;;0.19;100.00
66668;BME280;57205;51.438;-2.006;2023-01-28T00:55:39;102568.53;;;0.19;100.00
66668;BME280;57205;51.438;-2.006;2023-01-28T00:58:05;102572.94;;;0.19;100.00
66668;BME280;57205;51.438;-2.006;2023-01-28T01:00:30;102568.38;;;0.21;100.00
66668;BME280;57205;51.438;-2.006;2023-01-28T01:02:55;102571.84;;;0.21;100.00
66668;BME280;57205;51.438;-2.006;2023-01-28T01:05:20;102571.09;;;0.29;100.00
66668;BME280;57205;51.438;-2.006;2023-01-28T01:07:46;102570.94;;;0.30;100.00
66668;BME280;57205;51.438;-2.006;2023-01-28T01:10:13;102572.28;;;0.34;100.00
66668;BME280;57205;51.438;-2.006;2023-01-28T01:12:38;102566.19;;;0.34;100.00
66668;BME280;57205;51.438;-2.006;2023-01-28T01:15:04;102567.03;;;0.34;100.00
66668;BME280;57205;51.438;-2.006;2023-01-28T01:17:32;102563.13;;;0.38;100.00
66668;BME280;57205;51.438;-2.006;2023-01-28T01:19:58;102559.38;;;0.41;100.00
66668;BME280;57205;51.438;-2.006;2023-01-28T01:22:23;102555.59;;;0.43;100.00
66668;BME280;57205;51.438;-2.006;2023-01-28T01:24:48;102544.09;;;0.44;100.00
66668;BME280;57205;51.438;-2.006;2023-01-28T01:27:14;102542.94;;;0.47;100.00
66668;BME280;57205;51.438;-2.006;2023-01-28T01:29:39;102535.22;;;0.45;100.00
66668;BME280;57205;51.438;-2.006;2023-01-28T01:32:04;102545.59;;;0.47;100.00
66668;BME280;57205;51.438;-2.006;2023-01-28T01:34:30;102544.25;;;0.43;100.00
66668;BME280;57205;51.438;-2.006;2023-01-28T01:36:55;102539.78;;;0.43;100.00
66668;BME280;57205;51.438;-2.006;2023-01-28T01:39:20;102536.88;;;0.46;100.00
66668;BME280;57205;51.438;-2.006;2023-01-28T01:41:45;102532.28;;;0.48;100.00
66668;BME280;57205;51.438;-2.006;2023-01-28T01:46:55;102528.66;;;0.49;100.00
66668;BME280;57205;51.438;-2.006;2023-01-28T01:49:21;102536.56;;;0.49;100.00
66668;BME280;57205;51.438;-2.006;2023-01-28T01:51:47;102539.19;;;0.49;100.00
66668;BME280;57205;51.438;-2.006;2023-01-28T01:54:14;102531.16;;;0.51;100.00
66668;BME280;57205;51.438;-2.006;2023-01-28T01:56:41;102533.63;;;0.52;100.00
66668;BME280;57205;51.438;-2.006;2023-01-28T01:59:09;102541.53;;;0.52;100.00
66668;BME280;57205;51.438;-2.006;2023-01-28T02:01:35;102542.66;;;0.50;100.00
66668;BME280;57205;51.438;-2.006;2023-01-28T02:06:29;102551.38;;;0.50;100.00
66668;BME280;57205;51.438;-2.006;2023-01-28T02:08:55;102545.31;;;0.50;100.00
66668;BME280;57205;51.438;-2.006;2023-01-28T02:11:21;102543.47;;;0.50;100.00
66668;BME280;57205;51.438;-2.006;2023-01-28T02:13:48;102546.09;;;0.50;100.00
66668;BME280;57205;51.438;-2.006;2023-01-28T02:16:15;102550.41;;;0.51;100.00
66668;BME280;57205;51.438;-2.006;2023-01-28T02:18:40;102552.38;;;0.49;100.00
66668;BME280;57205;51.438;-2.006;2023-01-28T02:23:45;102549.88;;;0.48;100.00
66668;BME280;57205;51.438;-2.006;2023-01-28T02:29:09;102555.31;;;0.46;100.00
66668;BME280;57205;51.438;-2.006;2023-01-28T02:31:50;102552.16;;;0.43;100.00
66668;BME280;57205;51.438;-2.006;2023-01-28T02:34:33;102554.47;;;0.46;100.00
66668;BME280;57205;51.438;-2.006;2023-01-28T02:37:02;102555.59;;;0.43;100.00
66668;BME280;57205;51.438;-2.006;2023-01-28T02:39:33;102566.97;;;0.44;100.00
66668;BME280;57205;51.438;-2.006;2023-01-28T02:42:07;102565.16;;;0.44;100.00
66668;BME280;57205;51.438;-2.006;2023-01-28T02:44:33;102571.63;;;0.50;100.00
66668;BME280;57205;51.438;-2.006;2023-01-28T02:46:59;102571.16;;;0.54;100.00
66668;BME280;57205;51.438;-2.006;2023-01-28T02:49:44;102568.69;;;0.53;100.00
66668;BME280;57205;51.438;-2.006;2023-01-28T03:00:01;102586.06;;;0.63;100.00
66668;BME280;57205;51.438;-2.006;2023-01-28T03:02:35;102583.31;;;0.65;100.00
66668;BME280;57205;51.438;-2.006;2023-01-28T03:05:06;102586.06;;;0.63;100.00
66668;BME280;57205;51.438;-2.006;2023-01-28T03:07:35;102588.69;;;0.63;100.00
66668;BME280;57205;51.438;-2.006;2023-01-28T03:10:03;102590.22;;;0.66;100.00
66668;BME280;57205;51.438;-2.006;2023-01-28T03:12:30;102587.56;;;0.66;100.00
66668;BME280;57205;51.438;-2.006;2023-01-28T03:15:16;102590.56;;;0.71;100.00
66668;BME280;57205;51.438;-2.006;2023-01-28T03:18:06;102592.69;;;0.67;100.00
66668;BME280;57205;51.438;-2.006;2023-01-28T03:21:10;102596.31;;;0.66;100.00
66668;BME280;57205;51.438;-2.006;2023-01-28T03:24:05;102597.16;;;0.67;100.00
66668;BME280;57205;51.438;-2.006;2023-01-28T03:29:45;102592.84;;;0.66;100.00
66668;BME280;57205;51.438;-2.006;2023-01-28T03:32:30;102584.09;;;0.65;100.00
66668;BME280;57205;51.438;-2.006;2023-01-28T03:35:15;102581.47;;;0.65;100.00
66668;BME280;57205;51.438;-2.006;2023-01-28T03:38:00;102584.09;;;0.65;100.00
66668;BME280;57205;51.438;-2.006;2023-01-28T03:40:55;102576.19;;;0.65;100.00
66668;BME280;57205;51.438;-2.006;2023-01-28T03:43:21;102569.66;;;0.69;100.00
66668;BME280;57205;51.438;-2.006;2023-01-28T03:45:47;102564.38;;;0.69;100.00
66668;BME280;57205;51.438;-2.006;2023-01-28T03:48:16;102565.91;;;0.72;100.00
66668;BME280;57205;51.438;-2.006;2023-01-28T03:50:41;102557.16;;;0.71;100.00
66668;BME280;57205;51.438;-2.006;2023-01-28T03:53:06;102553.56;;;0.72;100.00
66668;BME280;57205;51.438;-2.006;2023-01-28T03:55:38;102553.41;;;0.74;100.00
66668;BME280;57205;51.438;-2.006;2023-01-28T03:58:03;102552.25;;;0.76;100.00
66668;BME280;57205;51.438;-2.006;2023-01-28T04:00:30;102558.53;;;0.75;100.00
66668;BME280;57205;51.438;-2.006;2023-01-28T04:02:56;102543.69;;;0.74;100.00
66668;BME280;57205;51.438;-2.006;2023-01-28T04:05:22;102546.19;;;0.76;100.00
66668;BME280;57205;51.438;-2.006;2023-01-28T04:07:48;102543.22;;;0.79;100.00
66668;BME280;57205;51.438;-2.006;2023-01-28T04:10:15;102553.94;;;0.77;100.00
66668;BME280;57205;51.438;-2.006;2023-01-28T04:12:41;102554.88;;;0.76;100.00
66668;BME280;57205;51.438;-2.006;2023-01-28T04:15:06;102554.22;;;0.74;100.00
66668;BME280;57205;51.438;-2.006;2023-01-28T04:17:39;102545.34;;;0.75;100.00
66668;BME280;57205;51.438;-2.006;2023-01-28T04:20:05;102547.81;;;0.77;100.00
66668;BME280;57205;51.438;-2.006;2023-01-28T04:22:30;102542.88;;;0.74;100.00
66668;BME280;57205;51.438;-2.006;2023-01-28T04:24:55;102545.34;;;0.75;100.00
66668;BME280;57205;51.438;-2.006;2023-01-28T04:27:20;102548.13;;;0.74;100.00
66668;BME280;57205;51.438;-2.006;2023-01-28T04:29:46;102541.03;;;0.74;100.00
66668;BME280;57205;51.438;-2.006;2023-01-28T04:32:11;102539.56;;;0.72;100.00
66668;BME280;57205;51.438;-2.006;2023-01-28T04:34:36;102544.00;;;0.71;100.00
66668;BME280;57205;51.438;-2.006;2023-01-28T04:37:01;102538.56;;;0.73;100.00
66668;BME280;57205;51.438;-2.006;2023-01-28T04:39:27;102532.63;;;0.71;100.00
66668;BME280;57205;51.438;-2.006;2023-01-28T04:41:52;102541.19;;;0.73;100.00
66668;BME280;57205;51.438;-2.006;2023-01-28T04:44:17;102540.69;;;0.69;100.00
66668;BME280;57205;51.438;-2.006;2023-01-28T04:46:42;102548.75;;;0.68;100.00
66668;BME280;57205;51.438;-2.006;2023-01-28T04:49:08;102549.56;;;0.68;100.00
66668;BME280;57205;51.438;-2.006;2023-01-28T04:51:33;102550.09;;;0.72;100.00
66668;BME280;57205;51.438;-2.006;2023-01-28T04:53:58;102553.41;;;0.74;100.00
66668;BME280;57205;51.438;-2.006;2023-01-28T04:56:24;102561.47;;;0.72;100.00
66668;BME280;57205;51.438;-2.006;2023-01-28T04:58:49;102558.84;;;0.72;100.00
66668;BME280;57205;51.438;-2.006;2023-01-28T05:01:14;102561.47;;;0.72;100.00
66668;BME280;57205;51.438;-2.006;2023-01-28T05:03:39;102561.47;;;0.72;100.00
66668;BME280;57205;51.438;-2.006;2023-01-28T05:06:05;102565.06;;;0.71;100.00
66668;BME280;57205;51.438;-2.006;2023-01-28T05:08:30;102559.63;;;0.73;100.00
66668;BME280;57205;51.438;-2.006;2023-01-28T05:10:56;102564.75;;;0.74;100.00
66668;BME280;57205;51.438;-2.006;2023-01-28T05:13:21;102570.03;;;0.74;100.00
66668;BME280;57205;51.438;-2.006;2023-01-28T05:15:49;102567.25;;;0.76;100.00
66668;BME280;57205;51.438;-2.006;2023-01-28T05:18:15;102571.22;;;0.80;100.00
66668;BME280;57205;51.438;-2.006;2023-01-28T05:20:40;102570.25;;;0.81;100.00
66668;BME280;57205;51.438;-2.006;2023-01-28T05:23:05;102568.59;;;0.80;100.00
66668;BME280;57205;51.438;-2.006;2023-01-28T05:25:31;102566.09;;;0.78;100.00
66668;BME280;57205;51.438;-2.006;2023-01-28T05:27:56;102568.59;;;0.80;100.00
66668;BME280;57205;51.438;-2.006;2023-01-28T05:30:21;102564.31;;;0.79;100.00
66668;BME280;57205;51.438;-2.006;2023-01-28T05:32:46;102561.00;;;0.77;100.00
66668;BME280;57205;51.438;-2.006;2023-01-28T05:35:12;102569.13;;;0.83;100.00
66668;BME280;57205;51.438;-2.006;2023-01-28T05:37:37;102578.16;;;0.81;100.00
66668;BME280;57205;51.438;-2.006;2023-01-28T05:40:02;102579.00;;;0.81;100.00
66668;BME280;57205;51.438;-2.006;2023-01-28T05:42:28;102579.81;;;0.82;100.00
66668;BME280;57205;51.438;-2.006;2023-01-28T05:44:53;102576.34;;;0.81;100.00
66668;BME280;57205;51.438;-2.006;2023-01-28T05:47:18;102570.94;;;0.83;100.00
66668;BME280;57205;51.438;-2.006;2023-01-28T05:49:43;102579.66;;;0.83;100.00
66668;BME280;57205;51.438;-2.006;2023-01-28T05:52:10;102578.34;;;0.87;100.00
66668;BME280;57205;51.438;-2.006;2023-01-28T05:54:35;102577.56;;;0.87;100.00
66668;BME280;57205;51.438;-2.006;2023-01-28T05:57:01;102572.28;;;0.87;100.00
66668;BME280;57205;51.438;-2.006;2023-01-28T05:59:26;102578.34;;;0.87;100.00
66668;BME280;57205;51.438;-2.006;2023-01-28T06:01:51;102569.66;;;0.87;100.00
66668;BME280;57205;51.438;-2.006;2023-01-28T06:04:16;102572.28;;;0.87;100.00
66668;BME280;57205;51.438;-2.006;2023-01-28T06:06:43;102578.34;;;0.87;100.00
66668;BME280;57205;51.438;-2.006;2023-01-28T06:09:08;102572.13;;;0.88;100.00
66668;BME280;57205;51.438;-2.006;2023-01-28T06:11:33;102582.66;;;0.88;100.00
66668;BME280;57205;51.438;-2.006;2023-01-28T06:13:59;102584.81;;;0.93;100.00
66668;BME280;57205;51.438;-2.006;2023-01-28T06:16:24;102578.91;;;0.91;100.00
66668;BME280;57205;51.438;-2.006;2023-01-28T06:18:49;102579.88;;;0.90;100.00
66668;BME280;57205;51.438;-2.006;2023-01-28T06:21:15;102576.28;;;0.91;100.00
66668;BME280;57205;51.438;-2.006;2023-01-28T06:23:40;102573.47;;;0.92;100.00
66668;BME280;57205;51.438;-2.006;2023-01-28T06:26:05;102574.28;;;0.93;100.00
66668;BME280;57205;51.438;-2.006;2023-01-28T06:28:30;102576.91;;;0.93;100.00
66668;BME280;57205;51.438;-2.006;2023-01-28T06:30:56;102581.22;;;0.94;100.00
66668;BME280;57205;51.438;-2.006;2023-01-28T06:33:21;102577.31;;;0.98;100.00
66668;BME280;57205;51.438;-2.006;2023-01-28T06:35:48;102572.72;;;1.00;100.00
66668;BME280;57205;51.438;-2.006;2023-01-28T06:38:13;102578.66;;;1.02;100.00
66668;BME280;57205;51.438;-2.006;2023-01-28T06:40:39;102582.25;;;1.01;100.00
66668;BME280;57205;51.438;-2.006;2023-01-28T06:43:04;102574.88;;;1.05;100.00
66668;BME280;57205;51.438;-2.006;2023-01-28T06:45:30;102579.97;;;1.06;100.00
66668;BME280;57205;51.438;-2.006;2023-01-28T06:47:55;102573.22;;;1.04;100.00
66668;BME280;57205;51.438;-2.006;2023-01-28T06:50:20;102577.34;;;1.06;100.00
66668;BME280;57205;51.438;-2.006;2023-01-28T06:52:45;102580.16;;;1.05;100.00
66668;BME280;57205;51.438;-2.006;2023-01-28T06:55:11;102572.41;;;1.03;100.00
66668;BME280;57205;51.438;-2.006;2023-01-28T06:57:37;102575.88;;;1.04;100.00
66668;BME280;57205;51.438;-2.006;2023-01-28T07:00:02;102572.41;;;1.03;100.00
66668;BME280;57205;51.438;-2.006;2023-01-28T07:02:28;102579.34;;;1.04;100.00
66668;BME280;57205;51.438;-2.006;2023-01-28T07:04:53;102579.19;;;1.06;100.00
66668;BME280;57205;51.438;-2.006;2023-01-28T07:07:19;102587.09;;;1.06;100.00
66668;BME280;57205;51.438;-2.006;2023-01-28T07:09:44;102586.94;;;1.07;100.00
66668;BME280;57205;51.438;-2.006;2023-01-28T07:12:09;102585.94;;;1.08;100.00
66668;BME280;57205;51.438;-2.006;2023-01-28T07:14:34;102589.56;;;1.07;100.00
66668;BME280;57205;51.438;-2.006;2023-01-28T07:17:00;102596.63;;;1.07;100.00
66668;BME280;57205;51.438;-2.006;2023-01-28T07:19:25;102590.41;;;1.08;100.00
66668;BME280;57205;51.438;-2.006;2023-01-28T07:21:50;102584.97;;;1.09;100.00
66668;BME280;57205;51.438;-2.006;2023-01-28T07:24:15;102579.38;;;1.12;100.00
66668;BME280;57205;51.438;-2.006;2023-01-28T07:26:41;102582.69;;;1.14;100.00
66668;BME280;57205;51.438;-2.006;2023-01-28T07:29:07;102578.41;;;1.13;100.00
66668;BME280;57205;51.438;-2.006;2023-01-28T07:31:32;102577.56;;;1.13;100.00
66668;BME280;57205;51.438;-2.006;2023-01-28T07:33:57;102579.09;;;1.15;100.00
66668;BME280;57205;51.438;-2.006;2023-01-28T07:36:23;102581.56;;;1.17;100.00
66668;BME280;57205;51.438;-2.006;2023-01-28T07:38:48;102582.06;;;1.20;100.00
66668;BME280;57205;51.438;-2.006;2023-01-28T07:41:13;102577.63;;;1.21;100.00
66668;BME280;57205;51.438;-2.006;2023-01-28T07:43:38;102583.72;;;1.21;100.00
66668;BME280;57205;51.438;-2.006;2023-01-28T07:46:04;102573.69;;;1.25;100.00
66668;BME280;57205;51.438;-2.006;2023-01-28T07:48:29;102574.53;;;1.25;100.00
66668;BME280;57205;51.438;-2.006;2023-01-28T07:50:57;102585.91;;;1.26;100.00
66668;BME280;57205;51.438;-2.006;2023-01-28T07:53:22;102585.06;;;1.25;100.00
66668;BME280;57205;51.438;-2.006;2023-01-28T07:55:48;102583.25;;;1.26;100.00
66668;BME280;57205;51.438;-2.006;2023-01-28T07:58:13;102582.44;;;1.25;100.00
66668;BME280;57205;51.438;-2.006;2023-01-28T08:00:38;102587.53;;;1.27;100.00
66668;BME280;57205;51.438;-2.006;2023-01-28T08:03:05;102591.69;;;1.29;100.00
66668;BME280;57205;51.438;-2.006;2023-01-28T08:05:35;102595.84;;;1.32;100.00
66668;BME280;57205;51.438;-2.006;2023-01-28T08:08:03;102597.47;;;1.33;100.00
66668;BME280;57205;51.438;-2.006;2023-01-28T08:10:28;102604.56;;;1.32;100.00
66668;BME280;57205;51.438;-2.006;2023-01-28T08:12:54;102614.13;;;1.33;100.00
66668;BME280;57205;51.438;-2.006;2023-01-28T08:15:20;102616.28;;;1.38;100.00
66668;BME280;57205;51.438;-2.006;2023-01-28T08:17:45;102623.06;;;1.40;100.00
66668;BME280;57205;51.438;-2.006;2023-01-28T08:20:10;102612.69;;;1.39;100.00
66668;BME280;57205;51.438;-2.006;2023-01-28T08:22:36;102615.16;;;1.40;100.00
66668;BME280;57205;51.438;-2.006;2023-01-28T08:25:01;102629.03;;;1.42;100.00
66668;BME280;57205;51.438;-2.006;2023-01-28T08:27:26;102619.66;;;1.48;100.00
66668;BME280;57205;51.438;-2.006;2023-01-28T08:29:52;102634.19;;;1.52;100.00
66668;BME280;57205;51.438;-2.006;2023-01-28T08:32:17;102629.88;;;1.51;100.00
66668;BME280;57205;51.438;-2.006;2023-01-28T08:34:42;102631.22;;;1.55;100.00
66668;BME280;57205;51.438;-2.006;2023-01-28T08:37:08;102636.50;;;1.55;100.00
66668;BME280;57205;51.438;-2.006;2023-01-28T08:39:33;102642.13;;;1.60;100.00
66668;BME280;57205;51.438;-2.006;2023-01-28T08:41:58;102647.13;;;1.63;100.00
66668;BME280;57205;51.438;-2.006;2023-01-28T08:44:23;102645.16;;;1.65;100.00
66668;BME280;57205;51.438;-2.006;2023-01-28T08:46:49;102645.50;;;1.70;100.00
66668;BME280;57205;51.438;-2.006;2023-01-28T08:49:14;102654.09;;;1.72;100.00
66668;BME280;57205;51.438;-2.006;2023-01-28T08:51:39;102658.69;;;1.70;100.00
66668;BME280;57205;51.438;-2.006;2023-01-28T08:54:05;102667.44;;;1.70;100.00
66668;BME280;57205;51.438;-2.006;2023-01-28T08:56:30;102661.34;;;1.70;100.00
66668;BME280;57205;51.438;-2.006;2023-01-28T08:58:55;102665.66;;;1.71;100.00
66668;BME280;57205;51.438;-2.006;2023-01-28T09:01:21;102666.44;;;1.71;100.00
66668;BME280;57205;51.438;-2.006;2023-01-28T09:03:46;102670.94;;;1.71;100.00
66668;BME280;57205;51.438;-2.006;2023-01-28T09:06:11;102666.97;;;1.75;100.00
66668;BME280;57205;51.438;-2.006;2023-01-28T09:08:36;102671.28;;;1.76;100.00
66668;BME280;57205;51.438;-2.006;2023-01-28T09:11:02;102670.94;;;1.79;100.00
66668;BME280;57205;51.438;-2.006;2023-01-28T09:13:27;102675.25;;;1.80;100.00
66668;BME280;57205;51.438;-2.006;2023-01-28T09:15:54;102669.66;;;1.83;100.00
66668;BME280;57205;51.438;-2.006;2023-01-28T09:18:19;102664.06;;;1.86;100.00
66668;BME280;57205;51.438;-2.006;2023-01-28T09:20:44;102658.66;;;1.87;100.00
66668;BME280;57205;51.438;-2.006;2023-01-28T09:23:10;102661.13;;;1.89;100.00
66668;BME280;57205;51.438;-2.006;2023-01-28T09:25:35;102650.41;;;1.90;100.00
66668;BME280;57205;51.438;-2.006;2023-01-28T09:28:00;102652.25;;;1.98;100.00
66668;BME280;57205;51.438;-2.006;2023-01-28T09:30:28;102646.66;;;2.01;100.00
66668;BME280;57205;51.438;-2.006;2023-01-28T09:32:54;102649.00;;;2.04;100.00
66668;BME280;57205;51.438;-2.006;2023-01-28T09:35:20;102654.09;;;2.06;100.00
66668;BME280;57205;51.438;-2.006;2023-01-28T09:37:46;102660.06;;;2.08;100.00
66668;BME280;57205;51.438;-2.006;2023-01-28T09:40:20;102640.78;;;2.15;100.00
66668;BME280;57205;51.438;-2.006;2023-01-28T09:45:27;102627.28;;;2.26;100.00
66668;BME280;57205;51.438;-2.006;2023-01-28T09:47:58;102625.31;;;2.28;100.00
66668;BME280;57205;51.438;-2.006;2023-01-28T09:50:30;102623.00;;;2.33;100.00
66668;BME280;57205;51.438;-2.006;2023-01-28T09:52:56;102622.53;;;2.38;100.00
66668;BME280;57205;51.438;-2.006;2023-01-28T09:58:19;102626.69;;;2.56;100.00
66668;BME280;57205;51.438;-2.006;2023-01-28T10:06:21;102613.84;;;2.85;100.00
66668;BME280;57205;51.438;-2.006;2023-01-28T10:11:42;102588.22;;;2.94;100.00
66668;BME280;57205;51.438;-2.006;2023-01-28T10:14:12;102583.78;;;3.03;100.00
66668;BME280;57205;51.438;-2.006;2023-01-28T10:16:47;102591.84;;;3.09;100.00
66668;BME280;57205;51.438;-2.006;2023-01-28T10:19:25;102592.03;;;3.16;100.00
66668;BME280;57205;51.438;-2.006;2023-01-28T10:22:02;102589.34;;;3.24;100.00
66668;BME280;57205;51.438;-2.006;2023-01-28T10:24:33;102587.66;;;3.39;100.00
66668;BME280;57205;51.438;-2.006;2023-01-28T10:27:08;102586.31;;;3.51;100.00
66668;BME280;57205;51.438;-2.006;2023-01-28T10:29:35;102587.94;;;3.60;100.00
66668;BME280;57205;51.438;-2.006;2023-01-28T10:32:04;102586.63;;;3.64;100.00
66668;BME280;57205;51.438;-2.006;2023-01-28T10:34:37;102580.63;;;3.70;100.00
66668;BME280;57205;51.438;-2.006;2023-01-28T10:37:05;102586.44;;;3.73;100.00
66668;BME280;57205;51.438;-2.006;2023-01-28T10:39:30;102589.69;;;3.75;100.00
66668;BME280;57205;51.438;-2.006;2023-01-28T10:41:55;102588.72;;;3.76;100.00
66668;BME280;57205;51.438;-2.006;2023-01-28T10:44:24;102579.63;;;3.79;100.00
66668;BME280;57205;51.438;-2.006;2023-01-28T10:46:51;102579.25;;;3.82;100.00
66668;BME280;57205;51.438;-2.006;2023-01-28T10:49:18;102565.00;;;3.83;100.00
66668;BME280;57205;51.438;-2.006;2023-01-28T10:51:46;102561.03;;;3.87;100.00
66668;BME280;57205;51.438;-2.006;2023-01-28T10:56:47;102566.97;;;3.89;100.00
66668;BME280;57205;51.438;-2.006;2023-01-28T11:01:55;102564.69;;;3.86;100.00
66668;BME280;57205;51.438;-2.006;2023-01-28T11:04:24;102572.44;;;3.87;100.00
66668;BME280;57205;51.438;-2.006;2023-01-28T11:06:51;102572.28;;;3.89;100.00
66668;BME280;57205;51.438;-2.006;2023-01-28T11:09:29;102571.44;;;3.88;100.00
66668;BME280;57205;51.438;-2.006;2023-01-28T11:11:55;102576.59;;;3.90;100.00
66668;BME280;57205;51.438;-2.006;2023-01-28T11:14:21;102574.91;;;3.97;100.00
66668;BME280;57205;51.438;-2.006;2023-01-28T11:16:47;102587.19;;;3.90;100.00
66668;BME280;57205;51.438;-2.006;2023-01-28T11:19:13;102581.34;;;3.94;100.00
66668;BME280;57205;51.438;-2.006;2023-01-28T11:21:38;102588.63;;;3.92;100.00
66668;BME280;57205;51.438;-2.006;2023-01-28T11:24:13;102587.78;;;4.00;100.00
66668;BME280;57205;51.438;-2.006;2023-01-28T11:26:44;102597.22;;;4.03;100.00
66668;BME280;57205;51.438;-2.006;2023-01-28T11:29:22;102596.69;;;4.07;100.00
66668;BME280;57205;51.438;-2.006;2023-01-28T11:31:48;102585.94;;;4.09;100.00
66668;BME280;57205;51.438;-2.006;2023-01-28T11:34:15;102589.72;;;4.14;100.00
66668;BME280;57205;51.438;-2.006;2023-01-28T11:36:48;102599.97;;;4.09;100.00
66668;BME280;57205;51.438;-2.006;2023-01-28T11:39:19;102592.50;;;4.13;100.00
66668;BME280;57205;51.438;-2.006;2023-01-28T11:41:45;102592.84;;;4.18;100.00
66668;BME280;57205;51.438;-2.006;2023-01-28T11:59:41;102589.03;;;4.43;100.00
66668;BME280;57205;51.438;-2.006;2023-01-28T12:12:22;102598.25;;;4.55;100.00
66668;BME280;57205;51.438;-2.006;2023-01-28T12:20:13;102582.63;;;4.60;100.00
66668;BME280;57205;51.438;-2.006;2023-01-28T12:27:59;102579.56;;;4.71;100.00
66668;BME280;57205;51.438;-2.006;2023-01-28T12:30:30;102581.31;;;4.78;100.00
66668;BME280;57205;51.438;-2.006;2023-01-28T12:35:50;102561.50;;;4.89;100.00
66668;BME280;57205;51.438;-2.006;2023-01-28T12:38:26;102567.63;;;4.89;100.00
66668;BME280;57205;51.438;-2.006;2023-01-28T12:43:40;102560.97;;;4.93;100.00
66668;BME280;57205;51.438;-2.006;2023-01-28T12:46:15;102557.06;;;5.04;100.00
66668;BME280;57205;51.438;-2.006;2023-01-28T12:48:42;102550.13;;;5.03;100.00
66668;BME280;57205;51.438;-2.006;2023-01-28T12:51:11;102552.78;;;5.03;100.00
66668;BME280;57205;51.438;-2.006;2023-01-28T12:53:44;102552.56;;;5.05;100.00
66668;BME280;57205;51.438;-2.006;2023-01-28T12:58:48;102543.06;;;4.95;100.00
66668;BME280;57205;51.438;-2.006;2023-01-28T13:01:17;102541.69;;;5.00;100.00
66668;BME280;57205;51.438;-2.006;2023-01-28T13:06:16;102533.28;;;4.96;100.00
66668;BME280;57205;51.438;-2.006;2023-01-28T13:08:45;102527.31;;;4.94;100.00
66668;BME280;57205;51.438;-2.006;2023-01-28T13:11:13;102528.31;;;4.93;100.00
66668;BME280;57205;51.438;-2.006;2023-01-28T13:13:40;102524.69;;;4.94;100.00
66668;BME280;57205;51.438;-2.006;2023-01-28T13:16:06;102528.50;;;4.91;100.00
66668;BME280;57205;51.438;-2.006;2023-01-28T13:18:36;102523.00;;;4.93;100.00
66668;BME280;57205;51.438;-2.006;2023-01-28T13:23:48;102522.72;;;4.88;100.00
66668;BME280;57205;51.438;-2.006;2023-01-28T13:28:42;102517.53;;;4.94;100.00
66668;BME280;57205;51.438;-2.006;2023-01-28T13:31:12;102515.25;;;4.91;100.00
66668;BME280;57205;51.438;-2.006;2023-01-28T13:33:41;102511.56;;;4.92;100.00
66668;BME280;57205;51.438;-2.006;2023-01-28T13:38:32;102505.72;;;4.97;100.00
66668;BME280;57205;51.438;-2.006;2023-01-28T13:40:58;102500.16;;;4.92;100.00
66668;BME280;57205;51.438;-2.006;2023-01-28T13:46:06;102503.59;;;4.92;100.00
66668;BME280;57205;51.438;-2.006;2023-01-28T13:48:34;102500.97;;;4.92;100.00
66668;BME280;57205;51.438;-2.006;2023-01-28T13:51:03;102490.53;;;4.91;100.00
66668;BME280;57205;51.438;-2.006;2023-01-28T13:53:35;102485.59;;;4.88;100.00
66668;BME280;57205;51.438;-2.006;2023-01-28T13:56:06;102493.84;;;4.93;100.00
66668;BME280;57205;51.438;-2.006;2023-01-28T14:03:46;102487.88;;;4.91;100.00
66668;BME280;57205;51.438;-2.006;2023-01-28T14:19:30;102485.09;;;5.22;100.00
66668;BME280;57205;51.438;-2.006;2023-01-28T14:21:57;102488.84;;;5.27;100.00
66668;BME280;57205;51.438;-2.006;2023-01-28T14:24:22;102490.91;;;5.32;100.00
66668;BME280;57205;51.438;-2.006;2023-01-28T14:31:38;102488.38;;;5.38;100.00
66668;BME280;57205;51.438;-2.006;2023-01-28T14:36:34;102471.53;;;5.46;100.00
66668;BME280;57205;51.438;-2.006;2023-01-28T14:39:00;102474.19;;;5.46;100.00
66668;BME280;57205;51.438;-2.006;2023-01-28T14:41:26;102476.91;;;5.52;100.00
66668;BME280;57205;51.438;-2.006;2023-01-28T14:43:53;102486.06;;;5.50;100.00
66668;BME280;57205;51.438;-2.006;2023-01-28T14:46:24;102492.19;;;5.50;100.00
66668;BME280;57205;51.438;-2.006;2023-01-28T14:59:24;102498.97;;;5.38;100.00